sensor_id;sensor_type;location;lat;lon;timestamp;temperature;humidity
42885;DHT22;28534;48.100;11.584;2023-12-29T00:00:32;23.00;57.80
42885;DHT22;28534;48.100;11.584;2023-12-29T00:01:33;22.90;57.70
42885;DHT22;28534;48.100;11.584;2023-12-29T00:02:34;22.90;57.70
42885;DHT22;28534;48.100;11.584;2023-12-29T00:03:38;22.90;57.70
42885;DHT22;28534;48.100;11.584;2023-12-29T00:04:40;21.80;57.70
42885;DHT22;28534;48.100;11.584;2023-12-29T00:05:42;22.10;58.00
42885;DHT22;28534;48.100;11.584;2023-12-29T00:06:44;22.90;59.30
42885;DHT22;28534;48.100;11.584;2023-12-29T00:07:47;22.90;57.80
42885;DHT22;28534;48.100;11.584;2023-12-29T00:08:52;22.90;58.30
42885;DHT22;28534;48.100;11.584;2023-12-29T00:11:21;24.30;58.40
42885;DHT22;28534;48.100;11.584;2023-12-29T00:12:22;22.80;57.80
42885;DHT22;28534;48.100;11.584;2023-12-29T00:13:23;22.80;57.80
42885;DHT22;28534;48.100;11.584;2023-12-29T00:14:25;22.80;57.80
42885;DHT22;28534;48.100;11.584;2023-12-29T00:15:31;22.80;57.70
42885;DHT22;28534;48.100;11.584;2023-12-29T00:16:47;22.90;58.00
42885;DHT22;28534;48.100;11.584;2023-12-29T00:17:54;20.90;56.80
42885;DHT22;28534;48.100;11.584;2023-12-29T00:18:56;22.90;58.50
42885;DHT22;28534;48.100;11.584;2023-12-29T00:20:02;22.90;57.80
42885;DHT22;28534;48.100;11.584;2023-12-29T00:21:03;22.90;57.80
42885;DHT22;28534;48.100;11.584;2023-12-29T00:22:24;22.90;58.40
42885;DHT22;28534;48.100;11.584;2023-12-29T00:23:33;22.90;58.70
42885;DHT22;28534;48.100;11.584;2023-12-29T00:24:37;22.90;58.50
42885;DHT22;28534;48.100;11.584;2023-12-29T00:25:42;22.90;59.30
42885;DHT22;28534;48.100;11.584;2023-12-29T00:26:52;22.90;58.40
42885;DHT22;28534;48.100;11.584;2023-12-29T00:28:00;22.90;58.10
42885;DHT22;28534;48.100;11.584;2023-12-29T00:29:04;22.90;58.10
42885;DHT22;28534;48.100;11.584;2023-12-29T00:30:07;21.30;56.70
42885;DHT22;28534;48.100;11.584;2023-12-29T00:31:15;23.00;57.90
42885;DHT22;28534;48.100;11.584;2023-12-29T00:32:16;23.10;57.30
42885;DHT22;28534;48.100;11.584;2023-12-29T00:33:23;23.10;57.20
42885;DHT22;28534;48.100;11.584;2023-12-29T00:34:25;23.10;57.20
42885;DHT22;28534;48.100;11.584;2023-12-29T00:35:29;23.30;56.90
42885;DHT22;28534;48.100;11.584;2023-12-29T00:36:31;25.80;58.10
42885;DHT22;28534;48.100;11.584;2023-12-29T00:37:31;23.20;57.90
42885;DHT22;28534;48.100;11.584;2023-12-29T00:38:32;23.30;56.70
42885;DHT22;28534;48.100;11.584;2023-12-29T00:39:36;23.20;56.80
42885;DHT22;28534;48.100;11.584;2023-12-29T00:40:39;23.20;56.70
42885;DHT22;28534;48.100;11.584;2023-12-29T00:41:40;23.30;57.40
42885;DHT22;28534;48.100;11.584;2023-12-29T00:42:52;23.30;56.70
42885;DHT22;28534;48.100;11.584;2023-12-29T00:43:57;23.20;57.30
42885;DHT22;28534;48.100;11.584;2023-12-29T00:45:00;21.30;55.90
42885;DHT22;28534;48.100;11.584;2023-12-29T00:46:02;23.20;58.30
42885;DHT22;28534;48.100;11.584;2023-12-29T00:47:08;23.20;56.80
42885;DHT22;28534;48.100;11.584;2023-12-29T00:48:15;23.20;57.10
42885;DHT22;28534;48.100;11.584;2023-12-29T00:49:20;23.60;58.70
42885;DHT22;28534;48.100;11.584;2023-12-29T00:50:24;23.20;56.80
42885;DHT22;28534;48.100;11.584;2023-12-29T00:51:28;23.10;58.00
42885;DHT22;28534;48.100;11.584;2023-12-29T00:52:29;23.10;57.00
42885;DHT22;28534;48.100;11.584;2023-12-29T00:53:34;23.10;58.30
42885;DHT22;28534;48.100;11.584;2023-12-29T00:54:45;23.00;57.70
42885;DHT22;28534;48.100;11.584;2023-12-29T00:55:52;23.00;57.40
42885;DHT22;28534;48.100;11.584;2023-12-29T00:56:57;23.00;57.40
42885;DHT22;28534;48.100;11.584;2023-12-29T00:58:03;23.00;57.40
42885;DHT22;28534;48.100;11.584;2023-12-29T00:59:05;23.00;58.00
42885;DHT22;28534;48.100;11.584;2023-12-29T01:00:10;23.00;58.90
42885;DHT22;28534;48.100;11.584;2023-12-29T01:01:14;23.00;58.20
42885;DHT22;28534;48.100;11.584;2023-12-29T01:02:22;22.90;61.40
42885;DHT22;28534;48.100;11.584;2023-12-29T01:03:26;23.90;58.40
42885;DHT22;28534;48.100;11.584;2023-12-29T01:04:33;22.90;59.10
42885;DHT22;28534;48.100;11.584;2023-12-29T01:05:38;22.90;58.40
42885;DHT22;28534;48.100;11.584;2023-12-29T01:06:39;22.90;57.90
42885;DHT22;28534;48.100;11.584;2023-12-29T01:07:53;22.90;59.70
42885;DHT22;28534;48.100;11.584;2023-12-29T01:08:59;22.90;58.90
42885;DHT22;28534;48.100;11.584;2023-12-29T01:10:01;22.90;58.10
42885;DHT22;28534;48.100;11.584;2023-12-29T01:11:01;22.90;57.90
42885;DHT22;28534;48.100;11.584;2023-12-29T01:12:03;22.80;57.90
42885;DHT22;28534;48.100;11.584;2023-12-29T01:13:04;22.80;57.80
42885;DHT22;28534;48.100;11.584;2023-12-29T01:14:05;23.00;57.90
42885;DHT22;28534;48.100;11.584;2023-12-29T01:15:06;22.90;57.80
42885;DHT22;28534;48.100;11.584;2023-12-29T01:16:08;22.90;57.80
42885;DHT22;28534;48.100;11.584;2023-12-29T01:17:09;22.90;57.80
42885;DHT22;28534;48.100;11.584;2023-12-29T01:18:12;22.90;57.80
42885;DHT22;28534;48.100;11.584;2023-12-29T01:19:12;20.00;56.50
42885;DHT22;28534;48.100;11.584;2023-12-29T01:20:14;22.80;57.80
42885;DHT22;28534;48.100;11.584;2023-12-29T01:21:15;22.80;57.90
42885;DHT22;28534;48.100;11.584;2023-12-29T01:22:16;22.90;57.80
42885;DHT22;28534;48.100;11.584;2023-12-29T01:23:17;22.90;57.70
42885;DHT22;28534;48.100;11.584;2023-12-29T01:24:18;23.00;57.70
42885;DHT22;28534;48.100;11.584;2023-12-29T01:25:19;23.00;57.70
42885;DHT22;28534;48.100;11.584;2023-12-29T01:26:21;23.00;57.60
42885;DHT22;28534;48.100;11.584;2023-12-29T01:27:21;23.00;57.60
42885;DHT22;28534;48.100;11.584;2023-12-29T01:28:23;22.90;57.50
42885;DHT22;28534;48.100;11.584;2023-12-29T01:29:24;22.90;58.20
42885;DHT22;28534;48.100;11.584;2023-12-29T01:30:25;22.90;57.50
42885;DHT22;28534;48.100;11.584;2023-12-29T01:31:28;23.00;57.40
42885;DHT22;28534;48.100;11.584;2023-12-29T01:32:30;22.90;57.40
42885;DHT22;28534;48.100;11.584;2023-12-29T01:33:32;23.00;57.50
42885;DHT22;28534;48.100;11.584;2023-12-29T01:34:33;23.00;57.50
42885;DHT22;28534;48.100;11.584;2023-12-29T01:35:34;23.00;57.50
42885;DHT22;28534;48.100;11.584;2023-12-29T01:36:35;23.00;57.40
42885;DHT22;28534;48.100;11.584;2023-12-29T01:37:36;23.10;57.70
42885;DHT22;28534;48.100;11.584;2023-12-29T01:38:37;23.00;57.40
42885;DHT22;28534;48.100;11.584;2023-12-29T01:39:39;23.10;57.40
42885;DHT22;28534;48.100;11.584;2023-12-29T01:40:43;23.10;57.50
42885;DHT22;28534;48.100;11.584;2023-12-29T01:41:45;23.00;57.40
42885;DHT22;28534;48.100;11.584;2023-12-29T01:42:46;22.90;57.40
42885;DHT22;28534;48.100;11.584;2023-12-29T01:45:07;23.00;57.40
42885;DHT22;28534;48.100;11.584;2023-12-29T01:46:13;23.00;57.40
42885;DHT22;28534;48.100;11.584;2023-12-29T01:47:15;23.10;57.60
42885;DHT22;28534;48.100;11.584;2023-12-29T01:48:16;23.00;57.60
42885;DHT22;28534;48.100;11.584;2023-12-29T01:49:19;22.90;57.50
42885;DHT22;28534;48.100;11.584;2023-12-29T01:50:21;22.90;57.50
42885;DHT22;28534;48.100;11.584;2023-12-29T01:51:23;23.00;58.20
42885;DHT22;28534;48.100;11.584;2023-12-29T01:52:24;22.90;57.40
42885;DHT22;28534;48.100;11.584;2023-12-29T01:53:26;22.90;57.30
42885;DHT22;28534;48.100;11.584;2023-12-29T01:54:29;22.90;57.20
42885;DHT22;28534;48.100;11.584;2023-12-29T01:55:32;23.00;57.40
42885;DHT22;28534;48.100;11.584;2023-12-29T01:56:33;22.90;57.30
42885;DHT22;28534;48.100;11.584;2023-12-29T01:57:33;22.90;57.20
42885;DHT22;28534;48.100;11.584;2023-12-29T01:58:35;23.00;57.10
42885;DHT22;28534;48.100;11.584;2023-12-29T01:59:36;23.10;57.00
42885;DHT22;28534;48.100;11.584;2023-12-29T02:00:38;23.10;56.80
42885;DHT22;28534;48.100;11.584;2023-12-29T02:01:40;23.30;56.80
42885;DHT22;28534;48.100;11.584;2023-12-29T02:02:41;23.20;56.70
42885;DHT22;28534;48.100;11.584;2023-12-29T02:03:42;23.20;56.60
42885;DHT22;28534;48.100;11.584;2023-12-29T02:04:44;23.20;56.60
42885;DHT22;28534;48.100;11.584;2023-12-29T02:05:46;23.20;56.60
42885;DHT22;28534;48.100;11.584;2023-12-29T02:06:47;23.20;56.60
42885;DHT22;28534;48.100;11.584;2023-12-29T02:07:50;23.30;56.70
42885;DHT22;28534;48.100;11.584;2023-12-29T02:08:51;23.30;56.80
42885;DHT22;28534;48.100;11.584;2023-12-29T02:09:53;23.20;56.70
42885;DHT22;28534;48.100;11.584;2023-12-29T02:10:53;23.30;56.70
42885;DHT22;28534;48.100;11.584;2023-12-29T02:11:56;23.30;56.80
42885;DHT22;28534;48.100;11.584;2023-12-29T02:12:57;23.10;56.60
42885;DHT22;28534;48.100;11.584;2023-12-29T02:13:59;23.10;56.70
42885;DHT22;28534;48.100;11.584;2023-12-29T02:15:01;23.20;56.80
42885;DHT22;28534;48.100;11.584;2023-12-29T02:16:16;23.10;57.40
42885;DHT22;28534;48.100;11.584;2023-12-29T02:17:21;23.10;57.00
42885;DHT22;28534;48.100;11.584;2023-12-29T02:18:23;23.00;57.10
42885;DHT22;28534;48.100;11.584;2023-12-29T02:19:28;23.10;57.10
42885;DHT22;28534;48.100;11.584;2023-12-29T02:20:35;23.00;57.10
42885;DHT22;28534;48.100;11.584;2023-12-29T02:21:37;23.10;57.30
42885;DHT22;28534;48.100;11.584;2023-12-29T02:22:38;23.00;57.20
42885;DHT22;28534;48.100;11.584;2023-12-29T02:23:39;23.10;57.30
42885;DHT22;28534;48.100;11.584;2023-12-29T02:24:44;23.00;57.40
42885;DHT22;28534;48.100;11.584;2023-12-29T02:25:46;23.10;57.50
42885;DHT22;28534;48.100;11.584;2023-12-29T02:26:47;23.00;57.50
42885;DHT22;28534;48.100;11.584;2023-12-29T02:27:52;22.90;57.50
42885;DHT22;28534;48.100;11.584;2023-12-29T02:28:56;22.90;57.50
42885;DHT22;28534;48.100;11.584;2023-12-29T02:30:07;23.00;57.60
42885;DHT22;28534;48.100;11.584;2023-12-29T02:31:09;22.90;57.60
42885;DHT22;28534;48.100;11.584;2023-12-29T02:32:11;23.00;57.70
42885;DHT22;28534;48.100;11.584;2023-12-29T02:33:14;23.00;57.70
42885;DHT22;28534;48.100;11.584;2023-12-29T02:34:18;22.80;57.80
42885;DHT22;28534;48.100;11.584;2023-12-29T02:35:21;22.80;57.80
42885;DHT22;28534;48.100;11.584;2023-12-29T02:36:24;22.90;57.80
42885;DHT22;28534;48.100;11.584;2023-12-29T02:37:25;22.80;57.80
42885;DHT22;28534;48.100;11.584;2023-12-29T02:38:26;23.00;57.80
42885;DHT22;28534;48.100;11.584;2023-12-29T02:39:29;23.00;57.80
42885;DHT22;28534;48.100;11.584;2023-12-29T02:40:31;22.80;57.70
42885;DHT22;28534;48.100;11.584;2023-12-29T02:41:33;22.80;57.60
42885;DHT22;28534;48.100;11.584;2023-12-29T02:42:34;22.90;57.50
42885;DHT22;28534;48.100;11.584;2023-12-29T02:43:35;22.90;57.50
42885;DHT22;28534;48.100;11.584;2023-12-29T02:44:36;22.90;57.40
42885;DHT22;28534;48.100;11.584;2023-12-29T02:45:38;22.90;57.50
42885;DHT22;28534;48.100;11.584;2023-12-29T02:46:38;22.90;57.50
42885;DHT22;28534;48.100;11.584;2023-12-29T02:47:39;22.90;57.40
42885;DHT22;28534;48.100;11.584;2023-12-29T02:48:40;22.90;57.30
42885;DHT22;28534;48.100;11.584;2023-12-29T02:49:41;22.90;57.30
42885;DHT22;28534;48.100;11.584;2023-12-29T02:50:43;22.90;57.20
42885;DHT22;28534;48.100;11.584;2023-12-29T02:51:43;22.90;57.30
42885;DHT22;28534;48.100;11.584;2023-12-29T02:52:46;22.90;57.30
42885;DHT22;28534;48.100;11.584;2023-12-29T02:53:47;22.90;57.40
42885;DHT22;28534;48.100;11.584;2023-12-29T02:54:49;22.90;57.30
42885;DHT22;28534;48.100;11.584;2023-12-29T02:55:51;23.00;57.40
42885;DHT22;28534;48.100;11.584;2023-12-29T02:56:52;22.90;57.30
42885;DHT22;28534;48.100;11.584;2023-12-29T02:57:53;22.90;57.40
42885;DHT22;28534;48.100;11.584;2023-12-29T02:58:53;22.90;57.50
42885;DHT22;28534;48.100;11.584;2023-12-29T02:59:55;23.00;57.50
42885;DHT22;28534;48.100;11.584;2023-12-29T03:00:56;22.90;57.40
42885;DHT22;28534;48.100;11.584;2023-12-29T03:01:57;23.10;57.40
42885;DHT22;28534;48.100;11.584;2023-12-29T03:02:58;22.90;57.40
42885;DHT22;28534;48.100;11.584;2023-12-29T03:04:00;23.00;57.40
42885;DHT22;28534;48.100;11.584;2023-12-29T03:05:02;22.80;57.30
42885;DHT22;28534;48.100;11.584;2023-12-29T03:06:02;22.90;57.30
42885;DHT22;28534;48.100;11.584;2023-12-29T03:07:04;22.90;57.40
42885;DHT22;28534;48.100;11.584;2023-12-29T03:08:05;22.90;57.30
42885;DHT22;28534;48.100;11.584;2023-12-29T03:09:06;22.90;57.30
42885;DHT22;28534;48.100;11.584;2023-12-29T03:10:07;23.00;57.50
42885;DHT22;28534;48.100;11.584;2023-12-29T03:11:10;22.90;57.50
42885;DHT22;28534;48.100;11.584;2023-12-29T03:12:11;22.80;57.50
42885;DHT22;28534;48.100;11.584;2023-12-29T03:13:13;22.80;57.70
42885;DHT22;28534;48.100;11.584;2023-12-29T03:14:14;23.00;57.50
42885;DHT22;28534;48.100;11.584;2023-12-29T03:15:16;22.80;57.40
42885;DHT22;28534;48.100;11.584;2023-12-29T03:16:16;22.90;57.30
42885;DHT22;28534;48.100;11.584;2023-12-29T03:17:18;23.00;57.30
42885;DHT22;28534;48.100;11.584;2023-12-29T03:18:18;23.00;57.10
42885;DHT22;28534;48.100;11.584;2023-12-29T03:19:20;23.10;57.00
42885;DHT22;28534;48.100;11.584;2023-12-29T03:20:21;22.80;56.70
42885;DHT22;28534;48.100;11.584;2023-12-29T03:21:22;23.10;56.70
42885;DHT22;28534;48.100;11.584;2023-12-29T03:22:23;23.00;56.70
42885;DHT22;28534;48.100;11.584;2023-12-29T03:23:25;23.20;56.60
42885;DHT22;28534;48.100;11.584;2023-12-29T03:24:25;23.10;56.60
42885;DHT22;28534;48.100;11.584;2023-12-29T03:25:27;24.00;57.30
42885;DHT22;28534;48.100;11.584;2023-12-29T03:26:29;23.10;56.60
42885;DHT22;28534;48.100;11.584;2023-12-29T03:27:30;23.30;56.50
42885;DHT22;28534;48.100;11.584;2023-12-29T03:28:31;23.30;56.50
42885;DHT22;28534;48.100;11.584;2023-12-29T03:29:32;23.20;56.50
42885;DHT22;28534;48.100;11.584;2023-12-29T03:30:33;23.10;56.60
42885;DHT22;28534;48.100;11.584;2023-12-29T03:31:34;23.20;56.60
42885;DHT22;28534;48.100;11.584;2023-12-29T03:32:35;23.30;56.70
42885;DHT22;28534;48.100;11.584;2023-12-29T03:33:36;23.20;56.80
42885;DHT22;28534;48.100;11.584;2023-12-29T03:34:36;23.20;56.80
42885;DHT22;28534;48.100;11.584;2023-12-29T03:35:38;23.10;56.80
42885;DHT22;28534;48.100;11.584;2023-12-29T03:36:39;23.20;56.70
42885;DHT22;28534;48.100;11.584;2023-12-29T03:37:40;23.10;56.70
42885;DHT22;28534;48.100;11.584;2023-12-29T03:38:41;23.20;56.80
42885;DHT22;28534;48.100;11.584;2023-12-29T03:39:42;23.10;56.80
42885;DHT22;28534;48.100;11.584;2023-12-29T03:40:43;23.20;56.90
42885;DHT22;28534;48.100;11.584;2023-12-29T03:41:45;23.00;56.90
42885;DHT22;28534;48.100;11.584;2023-12-29T03:42:47;23.20;56.90
42885;DHT22;28534;48.100;11.584;2023-12-29T03:43:47;23.00;56.80
42885;DHT22;28534;48.100;11.584;2023-12-29T03:44:49;23.00;56.90
42885;DHT22;28534;48.100;11.584;2023-12-29T03:45:50;23.00;57.00
42885;DHT22;28534;48.100;11.584;2023-12-29T03:46:51;23.00;57.00
42885;DHT22;28534;48.100;11.584;2023-12-29T03:47:52;23.00;57.20
42885;DHT22;28534;48.100;11.584;2023-12-29T03:48:53;22.90;57.30
42885;DHT22;28534;48.100;11.584;2023-12-29T03:49:54;23.00;57.90
42885;DHT22;28534;48.100;11.584;2023-12-29T03:50:56;22.90;57.40
42885;DHT22;28534;48.100;11.584;2023-12-29T03:51:56;23.00;57.40
42885;DHT22;28534;48.100;11.584;2023-12-29T03:52:58;22.90;57.50
42885;DHT22;28534;48.100;11.584;2023-12-29T03:53:58;22.90;57.60
42885;DHT22;28534;48.100;11.584;2023-12-29T03:54:59;22.80;57.60
42885;DHT22;28534;48.100;11.584;2023-12-29T03:56:03;22.80;57.50
42885;DHT22;28534;48.100;11.584;2023-12-29T03:57:05;22.90;57.60
42885;DHT22;28534;48.100;11.584;2023-12-29T03:58:07;22.80;57.60
42885;DHT22;28534;48.100;11.584;2023-12-29T03:59:08;22.70;57.70
42885;DHT22;28534;48.100;11.584;2023-12-29T04:00:11;22.90;57.60
42885;DHT22;28534;48.100;11.584;2023-12-29T04:01:13;22.80;57.60
42885;DHT22;28534;48.100;11.584;2023-12-29T04:02:14;22.90;57.60
42885;DHT22;28534;48.100;11.584;2023-12-29T04:03:15;22.80;57.50
42885;DHT22;28534;48.100;11.584;2023-12-29T04:04:16;22.80;57.60
42885;DHT22;28534;48.100;11.584;2023-12-29T04:05:17;22.80;57.60
42885;DHT22;28534;48.100;11.584;2023-12-29T04:06:18;22.80;57.50
42885;DHT22;28534;48.100;11.584;2023-12-29T04:07:19;22.80;57.50
42885;DHT22;28534;48.100;11.584;2023-12-29T04:08:20;23.00;57.60
42885;DHT22;28534;48.100;11.584;2023-12-29T04:09:21;23.00;57.50
42885;DHT22;28534;48.100;11.584;2023-12-29T04:10:23;22.90;57.40
42885;DHT22;28534;48.100;11.584;2023-12-29T04:11:23;22.90;57.30
42885;DHT22;28534;48.100;11.584;2023-12-29T04:12:26;22.80;57.40
42885;DHT22;28534;48.100;11.584;2023-12-29T04:13:27;22.90;57.40
42885;DHT22;28534;48.100;11.584;2023-12-29T04:14:28;22.80;57.50
42885;DHT22;28534;48.100;11.584;2023-12-29T04:15:29;22.80;57.80
42885;DHT22;28534;48.100;11.584;2023-12-29T04:16:30;22.90;57.90
42885;DHT22;28534;48.100;11.584;2023-12-29T04:17:31;22.90;57.90
42885;DHT22;28534;48.100;11.584;2023-12-29T04:18:32;22.80;57.80
42885;DHT22;28534;48.100;11.584;2023-12-29T04:19:33;22.70;57.80
42885;DHT22;28534;48.100;11.584;2023-12-29T04:20:34;22.80;57.80
42885;DHT22;28534;48.100;11.584;2023-12-29T04:21:35;22.80;57.70
42885;DHT22;28534;48.100;11.584;2023-12-29T04:22:36;23.00;57.50
42885;DHT22;28534;48.100;11.584;2023-12-29T04:23:38;22.90;57.20
42885;DHT22;28534;48.100;11.584;2023-12-29T04:24:38;22.90;57.30
42885;DHT22;28534;48.100;11.584;2023-12-29T04:25:39;23.00;57.20
42885;DHT22;28534;48.100;11.584;2023-12-29T04:26:41;22.90;57.00
42885;DHT22;28534;48.100;11.584;2023-12-29T04:27:43;23.00;57.10
42885;DHT22;28534;48.100;11.584;2023-12-29T04:28:45;23.00;57.00
42885;DHT22;28534;48.100;11.584;2023-12-29T04:29:45;23.00;56.90
42885;DHT22;28534;48.100;11.584;2023-12-29T04:30:47;23.20;56.80
42885;DHT22;28534;48.100;11.584;2023-12-29T04:31:47;23.30;56.70
42885;DHT22;28534;48.100;11.584;2023-12-29T04:32:49;23.20;56.60
42885;DHT22;28534;48.100;11.584;2023-12-29T04:33:50;23.20;56.50
42885;DHT22;28534;48.100;11.584;2023-12-29T04:34:51;23.20;56.50
42885;DHT22;28534;48.100;11.584;2023-12-29T04:35:52;23.30;56.50
42885;DHT22;28534;48.100;11.584;2023-12-29T04:36:53;23.30;56.50
42885;DHT22;28534;48.100;11.584;2023-12-29T04:37:55;23.30;56.40
42885;DHT22;28534;48.100;11.584;2023-12-29T04:38:55;23.40;56.20
42885;DHT22;28534;48.100;11.584;2023-12-29T04:39:56;23.40;56.30
42885;DHT22;28534;48.100;11.584;2023-12-29T04:40:58;23.40;56.20
42885;DHT22;28534;48.100;11.584;2023-12-29T04:41:58;23.40;56.20
42885;DHT22;28534;48.100;11.584;2023-12-29T04:43:01;23.40;56.20
42885;DHT22;28534;48.100;11.584;2023-12-29T04:44:02;23.40;56.10
42885;DHT22;28534;48.100;11.584;2023-12-29T04:45:04;23.40;56.00
42885;DHT22;28534;48.100;11.584;2023-12-29T04:46:04;23.40;56.00
42885;DHT22;28534;48.100;11.584;2023-12-29T04:47:06;23.50;56.00
42885;DHT22;28534;48.100;11.584;2023-12-29T04:48:07;23.50;56.00
42885;DHT22;28534;48.100;11.584;2023-12-29T04:49:08;23.50;55.90
42885;DHT22;28534;48.100;11.584;2023-12-29T04:50:09;23.60;55.90
42885;DHT22;28534;48.100;11.584;2023-12-29T04:51:10;23.50;55.90
42885;DHT22;28534;48.100;11.584;2023-12-29T04:52:11;23.50;55.90
42885;DHT22;28534;48.100;11.584;2023-12-29T04:53:13;23.60;56.10
42885;DHT22;28534;48.100;11.584;2023-12-29T04:54:13;23.50;56.00
42885;DHT22;28534;48.100;11.584;2023-12-29T04:55:15;23.50;56.00
42885;DHT22;28534;48.100;11.584;2023-12-29T04:56:15;23.40;56.10
42885;DHT22;28534;48.100;11.584;2023-12-29T04:57:17;23.50;56.10
42885;DHT22;28534;48.100;11.584;2023-12-29T04:58:19;23.40;56.00
42885;DHT22;28534;48.100;11.584;2023-12-29T04:59:21;23.50;55.90
42885;DHT22;28534;48.100;11.584;2023-12-29T05:00:21;23.50;55.80
42885;DHT22;28534;48.100;11.584;2023-12-29T05:01:23;23.60;55.80
42885;DHT22;28534;48.100;11.584;2023-12-29T05:02:23;23.50;55.80
42885;DHT22;28534;48.100;11.584;2023-12-29T05:03:25;23.50;55.70
42885;DHT22;28534;48.100;11.584;2023-12-29T05:04:26;23.60;55.60
42885;DHT22;28534;48.100;11.584;2023-12-29T05:05:27;23.70;55.70
42885;DHT22;28534;48.100;11.584;2023-12-29T05:06:28;23.60;55.60
42885;DHT22;28534;48.100;11.584;2023-12-29T05:07:29;23.60;55.50
42885;DHT22;28534;48.100;11.584;2023-12-29T05:08:30;23.70;55.50
42885;DHT22;28534;48.100;11.584;2023-12-29T05:09:32;23.80;55.40
42885;DHT22;28534;48.100;11.584;2023-12-29T05:10:32;23.70;55.40
42885;DHT22;28534;48.100;11.584;2023-12-29T05:11:35;23.70;55.50
42885;DHT22;28534;48.100;11.584;2023-12-29T05:12:35;23.70;55.50
42885;DHT22;28534;48.100;11.584;2023-12-29T05:13:38;23.70;55.40
42885;DHT22;28534;48.100;11.584;2023-12-29T05:14:39;23.70;55.50
42885;DHT22;28534;48.100;11.584;2023-12-29T05:15:40;23.70;55.60
42885;DHT22;28534;48.100;11.584;2023-12-29T05:16:41;23.70;55.50
42885;DHT22;28534;48.100;11.584;2023-12-29T05:17:43;23.70;55.40
42885;DHT22;28534;48.100;11.584;2023-12-29T05:18:44;23.70;55.50
42885;DHT22;28534;48.100;11.584;2023-12-29T05:19:45;23.80;55.60
42885;DHT22;28534;48.100;11.584;2023-12-29T05:20:46;23.70;55.40
42885;DHT22;28534;48.100;11.584;2023-12-29T05:21:47;23.80;55.40
42885;DHT22;28534;48.100;11.584;2023-12-29T05:22:51;23.70;55.60
42885;DHT22;28534;48.100;11.584;2023-12-29T05:23:52;23.70;55.60
42885;DHT22;28534;48.100;11.584;2023-12-29T05:24:53;23.70;55.60
42885;DHT22;28534;48.100;11.584;2023-12-29T05:25:58;23.70;55.60
42885;DHT22;28534;48.100;11.584;2023-12-29T05:26:58;23.70;55.50
42885;DHT22;28534;48.100;11.584;2023-12-29T05:28:00;23.70;55.50
42885;DHT22;28534;48.100;11.584;2023-12-29T05:29:02;23.80;55.40
42885;DHT22;28534;48.100;11.584;2023-12-29T05:30:04;23.70;55.40
42885;DHT22;28534;48.100;11.584;2023-12-29T05:31:04;23.80;55.40
42885;DHT22;28534;48.100;11.584;2023-12-29T05:32:06;23.80;55.40
42885;DHT22;28534;48.100;11.584;2023-12-29T05:33:07;23.70;55.40
42885;DHT22;28534;48.100;11.584;2023-12-29T05:34:08;23.80;55.50
42885;DHT22;28534;48.100;11.584;2023-12-29T05:35:09;23.80;55.30
42885;DHT22;28534;48.100;11.584;2023-12-29T05:36:10;23.80;55.30
42885;DHT22;28534;48.100;11.584;2023-12-29T05:37:12;23.80;55.20
42885;DHT22;28534;48.100;11.584;2023-12-29T05:38:12;23.80;55.10
42885;DHT22;28534;48.100;11.584;2023-12-29T05:39:14;23.80;55.10
42885;DHT22;28534;48.100;11.584;2023-12-29T05:40:15;23.90;55.20
42885;DHT22;28534;48.100;11.584;2023-12-29T05:41:16;23.90;55.20
42885;DHT22;28534;48.100;11.584;2023-12-29T05:42:19;23.80;55.30
42885;DHT22;28534;48.100;11.584;2023-12-29T05:43:20;23.80;55.20
42885;DHT22;28534;48.100;11.584;2023-12-29T05:44:22;23.80;55.20
42885;DHT22;28534;48.100;11.584;2023-12-29T05:45:24;23.70;55.20
42885;DHT22;28534;48.100;11.584;2023-12-29T05:46:25;23.80;55.20
42885;DHT22;28534;48.100;11.584;2023-12-29T05:47:26;23.90;55.10
42885;DHT22;28534;48.100;11.584;2023-12-29T05:48:27;23.80;55.10
42885;DHT22;28534;48.100;11.584;2023-12-29T05:49:29;23.80;55.20
42885;DHT22;28534;48.100;11.584;2023-12-29T05:50:29;23.80;55.40
42885;DHT22;28534;48.100;11.584;2023-12-29T05:51:31;23.80;55.40
42885;DHT22;28534;48.100;11.584;2023-12-29T05:52:32;23.80;55.40
42885;DHT22;28534;48.100;11.584;2023-12-29T05:53:32;23.80;55.50
42885;DHT22;28534;48.100;11.584;2023-12-29T05:54:34;23.80;55.50
42885;DHT22;28534;48.100;11.584;2023-12-29T05:55:35;23.80;56.20
42885;DHT22;28534;48.100;11.584;2023-12-29T05:56:37;23.70;55.60
42885;DHT22;28534;48.100;11.584;2023-12-29T05:57:37;23.70;55.70
42885;DHT22;28534;48.100;11.584;2023-12-29T05:58:40;23.70;55.70
42885;DHT22;28534;48.100;11.584;2023-12-29T05:59:42;23.70;55.80
42885;DHT22;28534;48.100;11.584;2023-12-29T06:00:43;23.70;55.70
42885;DHT22;28534;48.100;11.584;2023-12-29T06:01:45;23.80;55.70
42885;DHT22;28534;48.100;11.584;2023-12-29T06:02:46;23.70;55.70
42885;DHT22;28534;48.100;11.584;2023-12-29T06:03:47;23.80;55.70
42885;DHT22;28534;48.100;11.584;2023-12-29T06:04:48;23.80;55.70
42885;DHT22;28534;48.100;11.584;2023-12-29T06:05:49;23.80;55.70
42885;DHT22;28534;48.100;11.584;2023-12-29T06:06:51;23.80;55.70
42885;DHT22;28534;48.100;11.584;2023-12-29T06:07:51;23.80;55.70
42885;DHT22;28534;48.100;11.584;2023-12-29T06:08:53;23.80;55.80
42885;DHT22;28534;48.100;11.584;2023-12-29T06:09:54;23.80;55.70
42885;DHT22;28534;48.100;11.584;2023-12-29T06:10:56;23.80;55.70
42885;DHT22;28534;48.100;11.584;2023-12-29T06:11:56;23.80;55.70
42885;DHT22;28534;48.100;11.584;2023-12-29T06:12:58;23.90;55.70
42885;DHT22;28534;48.100;11.584;2023-12-29T06:13:58;23.90;55.70
42885;DHT22;28534;48.100;11.584;2023-12-29T06:15:01;23.80;55.70
42885;DHT22;28534;48.100;11.584;2023-12-29T06:16:02;23.80;55.70
42885;DHT22;28534;48.100;11.584;2023-12-29T06:17:04;23.90;55.70
42885;DHT22;28534;48.100;11.584;2023-12-29T06:18:05;23.80;55.80
42885;DHT22;28534;48.100;11.584;2023-12-29T06:19:07;23.90;55.90
42885;DHT22;28534;48.100;11.584;2023-12-29T06:20:10;23.80;55.90
42885;DHT22;28534;48.100;11.584;2023-12-29T06:21:11;23.90;56.00
42885;DHT22;28534;48.100;11.584;2023-12-29T06:22:12;23.90;56.00
42885;DHT22;28534;48.100;11.584;2023-12-29T06:23:14;23.90;56.00
42885;DHT22;28534;48.100;11.584;2023-12-29T06:24:17;23.90;56.00
42885;DHT22;28534;48.100;11.584;2023-12-29T06:25:18;23.90;56.00
42885;DHT22;28534;48.100;11.584;2023-12-29T06:26:20;23.90;56.00
42885;DHT22;28534;48.100;11.584;2023-12-29T06:27:21;23.90;56.00
42885;DHT22;28534;48.100;11.584;2023-12-29T06:28:22;23.80;56.00